Terminal Aerodrome Forecast
Issued by NWS

Home | Current Version | Previous Version | Text Only | Print | Product List | Glossary On
Versions: 1 2 3 4 5 6 7 8 9 10 11 12 13 14
000
FTUS42 KMLB 300531
TAFLEE
TAF
KLEE 300531Z 3006/3106 08004KT P6SM FEW030
     FM301500 10006KT P6SM VCSH SCT035
     FM301800 09009KT P6SM VCSH SCT040
      TEMPO 3018/3022 5SM SHRA BKN035
     FM310100 10006KT P6SM SCT035 SCT060 BKN250=

USA.gov is the U.S. government's official web portal to all federal, state and local government web resources and services.